KDAL/DAL METAR and TAF weather

Enter ICAO airport designator
Station Type Date Time Source
KDAL METAR 2018/07/21 12:53 UTC NOAA

KDAL 211253Z 23005KT 10SM FEW200 OVC300 29/21 A2996 RMK AO2 SLP136 T02890206


Station Type Date Time Source
KDAL Decoded METAR 2018/07/21 12:53 UTC NOAA

DALLAS LOVE FIELD, TX, United States (KDAL) 32-51N 096-51W 158M
Jul 21, 2018 - 08:53 AM EDT / 2018.07.21 1253 UTC
Wind: from the SW (230 degrees) at 6 MPH (5 KT):0
Visibility: 10 mile(s):0
Sky conditions: overcast
Temperature: 84.0 F (28.9 C)
Dew Point: 69.1 F (20.6 C)
Relative Humidity: 60%
Pressure (altimeter): 29.96 in. Hg (1014 hPa)
ob: KDAL 211253Z 23005KT 10SM FEW200 OVC300 29/21 A2996 RMK AO2 SLP136 T02890206
cycle: 13

Station Type Date Time Source
KDAL TAF 2018/07/21 12:28 UTC NOAA

TAF KDAL 211125Z 2112/2212 24011KT P6SM BKN300
FM212200 19008KT P6SM SCT300
FM220800 26006KT P6SM SCT300


Example: see airport list